ENXQ weather

CLOSED Frigg DP2 Platform
Norway

Public forecast

Using degrees Celsius for public forecast. Weather courtesy of forecast.io.

METAR (pilot weather report)

Closest report is Oseberg A Platform, 42.8 nm (79.2 km) NNE. Retrieved 2019/05/21 12:20 UTC (5 minutes ago):

ENOA 211220Z 35014KT 9000 FEW006 11/10 Q1012 W///S3

TAF (pilot weather forecast)

Closest forecast is Oseberg A Platform, 42.8 nm (79.2 km) NNE. Retrieved 2019/05/21 12:57 UTC (0 seconds ago):

TAF ENOA 211100Z 2112/2212 36020KT 6000 SCT003 PROB30 TEMPO 2112/2203 0100 FG VV001 TEMPO 2203/2212 2000 SHRA BR BKN006 SCT020CB BECMG 2210/2212 VRB08KT